createdAt,value
2019-03-29T00:00:12.830Z,100720.79
2019-03-29T00:02:42.956Z,100720.35
2019-03-29T00:05:12.684Z,100720.52
2019-03-29T00:07:42.921Z,100712.32
2019-03-29T00:10:11.888Z,100720.14
2019-03-29T00:12:40.947Z,100714.61
2019-03-29T00:15:11.034Z,100720.24
2019-03-29T00:17:40.028Z,100723.70
2019-03-29T00:20:09.107Z,100716.83
2019-03-29T00:22:38.087Z,100711.73
2019-03-29T00:25:07.401Z,100713.05
2019-03-29T00:27:36.332Z,100718.59
2019-03-29T00:30:06.388Z,100718.13
2019-03-29T00:32:35.240Z,100728.84
2019-03-29T00:35:04.902Z,100729.27
2019-03-29T00:37:33.721Z,100726.30
2019-03-29T00:40:02.551Z,100730.58
2019-03-29T00:42:31.423Z,100730.58
2019-03-29T00:45:00.410Z,100732.80
2019-03-29T00:47:29.981Z,100726.28
2019-03-29T00:49:59.043Z,100724.63
2019-03-29T00:52:27.902Z,100729.39
2019-03-29T00:54:56.670Z,100723.34
2019-03-29T00:57:25.451Z,100725.58
2019-03-29T00:59:54.294Z,100728.14
2019-03-29T01:02:23.165Z,100727.25
2019-03-29T01:04:51.950Z,100727.28
2019-03-29T01:07:20.773Z,100729.92
2019-03-29T01:09:49.639Z,100728.67
2019-03-29T01:12:18.465Z,100726.08
2019-03-29T01:14:47.314Z,100723.92
2019-03-29T01:17:16.081Z,100720.38
2019-03-29T01:19:44.917Z,100717.38
2019-03-29T01:22:13.751Z,100715.67
2019-03-29T01:24:42.524Z,100714.42
2019-03-29T01:27:11.374Z,100716.94
2019-03-29T01:29:40.265Z,100713.05
2019-03-29T01:32:09.140Z,100707.00
2019-03-29T01:34:38.013Z,100708.27
2019-03-29T01:37:06.837Z,100711.69
2019-03-29T01:39:35.689Z,100712.55
2019-03-29T01:42:04.478Z,100714.26
2019-03-29T01:44:33.410Z,100708.20
2019-03-29T01:47:02.290Z,100709.52
2019-03-29T01:49:31.135Z,100706.03
2019-03-29T01:51:59.973Z,100708.66
2019-03-29T01:54:28.827Z,100698.31
2019-03-29T01:56:57.674Z,100703.47
2019-03-29T01:59:26.548Z,100703.98
2019-03-29T02:01:55.365Z,100704.02
2019-03-29T02:04:24.295Z,100703.16
2019-03-29T02:06:53.172Z,100701.02
2019-03-29T02:09:21.939Z,100690.22
2019-03-29T02:11:50.803Z,100695.87
2019-03-29T02:14:19.603Z,100691.97
2019-03-29T02:16:48.447Z,100696.27
2019-03-29T02:19:17.293Z,100691.12
2019-03-29T02:21:46.076Z,100696.30
2019-03-29T02:24:14.911Z,100700.64
2019-03-29T02:26:43.755Z,100695.02
2019-03-29T02:29:12.584Z,100698.05
2019-03-29T02:31:42.426Z,100698.06
2019-03-29T02:34:11.639Z,100693.80
2019-03-29T02:36:40.495Z,100698.63
2019-03-29T02:39:09.377Z,100702.13
2019-03-29T02:41:38.218Z,100694.80
2019-03-29T02:44:07.606Z,100696.09
2019-03-29T02:46:36.796Z,100695.25
2019-03-29T02:49:05.574Z,100696.52
2019-03-29T02:51:34.417Z,100700.41
2019-03-29T02:54:03.265Z,100697.83
2019-03-29T02:56:32.088Z,100699.55
2019-03-29T02:59:00.918Z,100702.13
2019-03-29T03:01:29.753Z,100703.86
2019-03-29T03:03:58.600Z,100697.39
2019-03-29T03:06:27.437Z,100691.36
2019-03-29T03:09:12.144Z,100698.24
2019-03-29T03:11:26.755Z,100696.08
2019-03-29T03:13:55.585Z,100693.95
2019-03-29T03:16:24.442Z,100693.07
2019-03-29T03:18:53.277Z,100693.07
2019-03-29T03:21:22.099Z,100696.97
2019-03-29T03:23:50.863Z,100696.97
2019-03-29T03:26:19.708Z,100694.37
2019-03-29T03:28:48.557Z,100696.11
2019-03-29T03:31:17.415Z,100694.80
2019-03-29T03:33:46.174Z,100690.93
2019-03-29T03:36:15.031Z,100694.79
2019-03-29T03:38:43.864Z,100690.48
2019-03-29T03:41:12.689Z,100687.05
2019-03-29T03:43:41.455Z,100689.19
2019-03-29T03:46:10.296Z,100691.36
2019-03-29T03:48:39.129Z,100693.50
2019-03-29T03:51:07.970Z,100695.22
2019-03-29T03:53:36.726Z,100700.38
2019-03-29T03:56:06.975Z,100694.34
2019-03-29T03:58:36.308Z,100700.34
2019-03-29T04:01:05.154Z,100702.09
2019-03-29T04:03:34.010Z,100705.95
2019-03-29T04:06:02.802Z,100706.75
2019-03-29T04:08:31.689Z,100700.76
2019-03-29T04:11:00.514Z,100705.46
2019-03-29T04:13:29.281Z,100710.26
2019-03-29T04:15:58.069Z,100714.55
2019-03-29T04:18:26.894Z,100720.59
2019-03-29T04:20:55.739Z,100719.70
2019-03-29T04:23:24.690Z,100720.58
2019-03-29T04:25:53.910Z,100721.47
2019-03-29T04:28:24.458Z,100719.34
2019-03-29T04:30:53.336Z,100736.56
2019-03-29T04:33:22.109Z,100738.31
2019-03-29T04:35:50.878Z,100733.18
2019-03-29T04:38:19.829Z,100732.75
2019-03-29T04:40:48.770Z,100732.30
2019-03-29T04:43:17.627Z,100728.44
2019-03-29T04:45:46.469Z,100733.59
2019-03-29T04:48:15.313Z,100723.25
2019-03-29T04:50:44.175Z,100725.82
2019-03-29T04:53:13.056Z,100730.58
2019-03-29T04:55:41.895Z,100732.30
2019-03-29T04:58:10.773Z,100728.86
2019-03-29T05:00:39.563Z,100734.47
2019-03-29T05:03:08.393Z,100727.98
2019-03-29T05:05:37.240Z,100737.86
2019-03-29T05:08:06.032Z,100742.59
2019-03-29T05:10:34.849Z,100747.31
2019-03-29T05:13:03.705Z,100753.78
2019-03-29T05:15:32.576Z,100750.17
2019-03-29T05:18:01.659Z,100747.91
2019-03-29T05:20:30.508Z,100753.45
2019-03-29T05:22:59.342Z,100753.81
2019-03-29T05:25:28.280Z,100754.71
2019-03-29T05:27:57.487Z,100745.05
2019-03-29T05:30:26.368Z,100751.58
2019-03-29T05:32:55.208Z,100749.03
2019-03-29T05:35:24.056Z,100751.14
2019-03-29T05:37:52.894Z,100755.56
2019-03-29T05:40:34.280Z,100745.64
2019-03-29T05:42:52.236Z,100757.05
2019-03-29T05:45:21.121Z,100759.11
2019-03-29T05:47:50.015Z,100754.01
2019-03-29T05:50:18.851Z,100754.53
2019-03-29T05:52:47.887Z,100753.00
2019-03-29T05:55:16.739Z,100751.63
2019-03-29T05:57:45.573Z,100749.55
2019-03-29T06:00:16.192Z,100746.20
2019-03-29T06:02:45.056Z,100752.78
2019-03-29T06:05:14.012Z,100750.56
2019-03-29T06:07:42.774Z,100752.27
2019-03-29T06:10:11.655Z,100752.05
2019-03-29T06:12:40.498Z,100753.17
2019-03-29T06:15:09.554Z,100748.88
2019-03-29T06:17:48.622Z,100747.43
2019-03-29T06:20:09.192Z,100742.64
2019-03-29T06:22:38.024Z,100745.55
2019-03-29T06:25:08.216Z,100746.15
2019-03-29T06:27:37.685Z,100744.20
2019-03-29T06:30:08.174Z,100741.09
2019-03-29T06:32:37.624Z,100742.14
2019-03-29T06:35:08.366Z,100735.03
2019-03-29T06:37:40.416Z,100743.12
2019-03-29T06:40:12.703Z,100739.55
2019-03-29T06:42:42.133Z,100741.73
2019-03-29T06:45:11.859Z,100733.36
2019-03-29T06:47:41.297Z,100733.08
2019-03-29T06:50:13.954Z,100728.03
2019-03-29T06:52:42.166Z,100723.03
2019-03-29T06:55:11.666Z,100725.97
2019-03-29T06:57:41.116Z,100724.89
2019-03-29T07:00:10.845Z,100727.56
2019-03-29T07:02:40.288Z,100724.44
2019-03-29T07:05:09.732Z,100721.23
2019-03-29T07:07:39.131Z,100720.84
2019-03-29T07:10:08.634Z,100713.59
2019-03-29T07:12:39.608Z,100718.80
2019-03-29T07:15:09.059Z,100719.05
2019-03-29T07:17:38.427Z,100719.63
2019-03-29T07:20:08.138Z,100717.98
2019-03-29T07:22:37.624Z,100719.89
2019-03-29T07:25:08.350Z,100718.23
2019-03-29T07:27:44.950Z,100714.36
2019-03-29T07:30:10.193Z,100717.83
2019-03-29T07:32:39.603Z,100716.27
2019-03-29T07:35:09.090Z,100719.30
2019-03-29T07:37:38.534Z,100713.16
2019-03-29T07:40:08.521Z,100710.18
2019-03-29T07:42:37.937Z,100707.14
2019-03-29T07:45:10.151Z,100697.59
2019-03-29T07:47:39.559Z,100697.91
2019-03-29T07:50:09.013Z,100697.21
2019-03-29T07:52:38.465Z,100691.89
2019-03-29T07:55:08.378Z,100691.58
2019-03-29T07:57:37.784Z,100684.17
2019-03-29T08:00:09.164Z,100679.72
2019-03-29T08:02:38.826Z,100681.37
2019-03-29T08:05:08.364Z,100675.02
2019-03-29T08:07:37.808Z,100676.65
2019-03-29T08:10:07.359Z,100678.36
2019-03-29T08:12:40.319Z,100680.13
2019-03-29T08:15:09.848Z,100676.42
2019-03-29T08:17:39.565Z,100671.70
2019-03-29T08:20:37.381Z,100671.48
2019-03-29T08:22:40.265Z,100665.81
2019-03-29T08:25:09.630Z,100661.84
2019-03-29T08:27:39.167Z,100652.55
2019-03-29T08:30:08.993Z,100653.08
2019-03-29T08:32:38.340Z,100651.77
2019-03-29T08:35:07.925Z,100648.69
2019-03-29T08:37:37.389Z,100648.25
2019-03-29T08:40:06.969Z,100647.05
2019-03-29T08:42:36.437Z,100642.48
2019-03-29T08:45:07.492Z,100643.25
2019-03-29T08:47:36.948Z,100642.20
2019-03-29T08:50:08.024Z,100635.34
2019-03-29T08:52:37.469Z,100635.58
2019-03-29T08:55:07.972Z,100633.07
2019-03-29T08:57:37.495Z,100632.05
2019-03-29T09:00:10.473Z,100623.20
2019-03-29T09:02:39.941Z,100622.26
2019-03-29T09:05:09.369Z,100612.64
2019-03-29T09:07:44.996Z,100612.50
2019-03-29T09:10:27.221Z,100615.04
2019-03-29T09:12:56.757Z,100610.41
2019-03-29T09:15:26.142Z,100609.14
2019-03-29T09:17:55.610Z,100603.52
2019-03-29T09:20:25.019Z,100593.99
2019-03-29T09:22:54.518Z,100593.73
2019-03-29T09:25:24.059Z,100586.72
2019-03-29T09:27:57.359Z,100592.04
2019-03-29T09:30:26.984Z,100587.38
2019-03-29T09:32:56.426Z,100586.89
2019-03-29T09:35:25.842Z,100579.67
2019-03-29T09:37:56.641Z,100576.58
2019-03-29T09:40:26.373Z,100576.24
2019-03-29T09:43:06.873Z,100573.48
2019-03-29T09:45:26.941Z,100572.13
2019-03-29T09:47:56.382Z,100561.60
2019-03-29T09:50:25.925Z,100560.92
2019-03-29T09:52:55.348Z,100556.54
2019-03-29T09:55:24.774Z,100558.92
2019-03-29T09:57:54.281Z,100550.44
2019-03-29T10:00:24.039Z,100551.38
2019-03-29T10:02:53.693Z,100546.51
2019-03-29T10:05:23.097Z,100549.00
2019-03-29T10:07:52.632Z,100545.95
2019-03-29T10:10:22.170Z,100542.11
2019-03-29T10:12:51.563Z,100544.19
2019-03-29T10:15:20.960Z,100537.59
2019-03-29T10:17:50.391Z,100532.85
2019-03-29T10:20:19.877Z,100539.54
2019-03-29T10:22:49.390Z,100535.57
2019-03-29T10:25:20.199Z,100529.08
2019-03-29T10:27:50.081Z,100520.62
2019-03-29T10:30:34.331Z,100514.02
2019-03-29T10:33:03.700Z,100523.30
2019-03-29T10:35:33.198Z,100517.57
2019-03-29T10:38:02.655Z,100515.45
2019-03-29T10:40:32.087Z,100518.07
2019-03-29T10:43:01.554Z,100516.03
2019-03-29T10:45:30.951Z,100509.48
2019-03-29T10:48:00.417Z,100504.73
2019-03-29T10:50:29.986Z,100506.47
2019-03-29T10:52:59.508Z,100506.28
2019-03-29T10:55:28.973Z,100498.48
2019-03-29T10:57:58.419Z,100498.48
2019-03-29T11:00:36.040Z,100494.80
2019-03-29T11:03:06.081Z,100494.98
2019-03-29T11:05:35.528Z,100493.96
2019-03-29T11:08:05.280Z,100501.28
2019-03-29T11:10:36.893Z,100489.39
2019-03-29T11:13:13.389Z,100497.36
2019-03-29T11:15:37.690Z,100490.72
2019-03-29T11:18:07.578Z,100488.47
2019-03-29T11:20:37.065Z,100488.78
2019-03-29T11:23:06.685Z,100486.00
2019-03-29T11:25:36.174Z,100496.20
2019-03-29T11:28:05.645Z,100466.53
2019-03-29T11:30:42.164Z,100470.66
2019-03-29T11:33:06.538Z,100468.54
2019-03-29T11:35:36.071Z,100463.64
2019-03-29T11:38:05.615Z,100459.72
2019-03-29T11:40:35.096Z,100463.12
2019-03-29T11:43:04.554Z,100455.66
2019-03-29T11:45:34.229Z,100401.59
2019-03-29T11:48:08.924Z,100401.59
2019-03-29T11:50:34.798Z,100449.25
2019-03-29T11:53:04.306Z,100449.25
2019-03-29T11:55:33.674Z,100438.22
2019-03-29T11:58:03.114Z,100445.77
2019-03-29T12:00:36.993Z,100438.62
2019-03-29T12:03:09.189Z,100429.32
2019-03-29T12:05:37.642Z,100436.70
2019-03-29T12:08:07.249Z,100430.61
2019-03-29T12:10:36.667Z,100431.11
2019-03-29T12:13:06.566Z,100429.77
2019-03-29T12:15:35.991Z,100432.88
2019-03-29T12:18:05.414Z,100426.25
2019-03-29T12:20:34.777Z,100418.04
2019-03-29T12:23:04.282Z,100418.08
2019-03-29T12:25:33.690Z,100419.67
2019-03-29T12:28:03.124Z,100413.74
2019-03-29T12:30:33.175Z,100417.06
2019-03-29T12:33:02.591Z,100422.12
2019-03-29T12:35:32.021Z,100416.36
2019-03-29T12:38:01.666Z,100413.23
2019-03-29T12:40:31.102Z,100408.23
2019-03-29T12:43:00.628Z,100402.80
2019-03-29T12:45:30.062Z,100402.56
2019-03-29T12:47:59.496Z,100402.89
2019-03-29T12:50:28.946Z,100401.14
2019-03-29T12:52:58.379Z,100400.33
2019-03-29T12:55:27.888Z,100391.17
2019-03-29T12:57:57.351Z,100390.38
2019-03-29T13:00:26.966Z,100387.45
2019-03-29T13:02:56.443Z,100384.05
2019-03-29T13:05:25.884Z,100379.35
2019-03-29T13:07:55.361Z,100387.30
2019-03-29T13:10:25.288Z,100383.14
2019-03-29T13:12:54.720Z,100386.22
2019-03-29T13:15:24.151Z,100382.32
2019-03-29T13:17:53.660Z,100380.88
2019-03-29T13:20:23.041Z,100381.65
2019-03-29T13:22:52.491Z,100386.09
2019-03-29T13:25:21.990Z,100380.41
2019-03-29T13:27:51.329Z,100371.16
2019-03-29T13:30:20.832Z,100373.63
2019-03-29T13:32:50.413Z,100376.13
2019-03-29T13:35:19.875Z,100376.16
2019-03-29T13:37:49.359Z,100372.45
2019-03-29T13:40:21.153Z,100370.27
2019-03-29T13:42:50.046Z,100368.81
2019-03-29T13:45:19.524Z,100368.75
2019-03-29T13:47:48.915Z,100369.83
2019-03-29T13:50:18.424Z,100359.93
2019-03-29T13:52:47.850Z,100355.36
2019-03-29T13:55:17.246Z,100356.98
2019-03-29T13:57:46.713Z,100362.98
2019-03-29T14:00:16.586Z,100362.66
2019-03-29T14:02:46.013Z,100351.84
2019-03-29T14:05:15.504Z,100352.05
2019-03-29T14:07:44.952Z,100349.27
2019-03-29T14:10:14.344Z,100343.00
2019-03-29T14:12:43.705Z,100351.41
2019-03-29T14:15:13.836Z,100343.05
2019-03-29T14:17:43.348Z,100340.73
2019-03-29T14:20:13.464Z,100336.57
2019-03-29T14:22:42.900Z,100341.12
2019-03-29T14:25:12.454Z,100337.45
2019-03-29T14:27:41.897Z,100337.56
2019-03-29T14:30:11.735Z,100334.08
2019-03-29T14:32:41.089Z,100328.05
2019-03-29T14:35:10.629Z,100326.55
2019-03-29T14:37:40.061Z,100322.19
2019-03-29T14:40:10.427Z,100319.50
2019-03-29T14:42:39.902Z,100314.48
2019-03-29T14:45:09.769Z,100312.53
2019-03-29T14:47:43.388Z,100310.11
2019-03-29T14:50:10.789Z,100308.26
2019-03-29T14:52:40.263Z,100301.89
2019-03-29T14:55:09.948Z,100304.54
2019-03-29T14:57:39.390Z,100302.50
2019-03-29T15:00:12.912Z,100311.15
2019-03-29T15:02:42.402Z,100313.30
2019-03-29T15:05:11.950Z,100304.56
2019-03-29T15:07:43.010Z,100302.73
2019-03-29T15:10:28.370Z,100305.36
2019-03-29T15:12:57.907Z,100296.42
2019-03-29T15:15:27.350Z,100294.44
2019-03-29T15:17:56.774Z,100292.15
2019-03-29T15:20:26.193Z,100298.78
2019-03-29T15:22:55.650Z,100294.17
2019-03-29T15:25:25.090Z,100296.47
2019-03-29T15:27:54.560Z,100291.37
2019-03-29T15:30:23.923Z,100286.48
2019-03-29T15:32:53.368Z,100283.27
2019-03-29T15:35:22.828Z,100293.22
2019-03-29T15:37:52.274Z,100291.08
2019-03-29T15:40:21.803Z,100294.70
2019-03-29T15:42:51.239Z,100294.22
2019-03-29T15:45:21.263Z,100296.22
2019-03-29T15:47:50.725Z,100296.88
2019-03-29T15:50:20.183Z,100299.41
2019-03-29T15:52:49.636Z,100300.34
2019-03-29T15:55:19.192Z,100303.02
2019-03-29T15:57:48.668Z,100311.92
2019-03-29T16:00:18.236Z,100317.98
2019-03-29T16:02:47.665Z,100316.51
2019-03-29T16:05:17.099Z,100325.88
2019-03-29T16:07:46.594Z,100331.42
2019-03-29T16:10:16.072Z,100331.02
2019-03-29T16:12:45.405Z,100333.09
2019-03-29T16:15:14.858Z,100329.17
2019-03-29T16:17:44.282Z,100335.75
2019-03-29T16:20:13.722Z,100332.86
2019-03-29T16:22:43.191Z,100340.38
2019-03-29T16:25:12.622Z,100339.30
2019-03-29T16:27:42.070Z,100351.44
2019-03-29T16:30:11.949Z,100343.30
2019-03-29T16:32:41.457Z,100349.34
2019-03-29T16:35:10.880Z,100353.13
2019-03-29T16:37:40.337Z,100348.76
2019-03-29T16:40:09.945Z,100354.82
2019-03-29T16:42:39.377Z,100359.66
2019-03-29T16:45:09.344Z,100357.33
2019-03-29T16:47:38.849Z,100361.12
2019-03-29T16:50:09.075Z,100365.84
2019-03-29T16:52:38.544Z,100364.87
2019-03-29T16:55:13.802Z,100369.53
2019-03-29T16:57:39.804Z,100382.90
2019-03-29T17:00:12.545Z,100379.98
2019-03-29T17:02:42.366Z,100386.55
2019-03-29T17:05:11.851Z,100394.38
2019-03-29T17:07:41.237Z,100388.98
2019-03-29T17:10:11.212Z,100390.24
2019-03-29T17:12:40.718Z,100390.67
2019-03-29T17:15:10.247Z,100384.47
2019-03-29T17:17:39.774Z,100392.33
2019-03-29T17:20:09.685Z,100394.62
2019-03-29T17:22:39.103Z,100398.59
2019-03-29T17:25:08.907Z,100395.70
2019-03-29T17:27:38.267Z,100397.23
2019-03-29T17:30:09.498Z,100399.19
2019-03-29T17:32:38.951Z,100399.32
2019-03-29T17:35:08.425Z,100403.94
2019-03-29T17:37:37.876Z,100402.30
2019-03-29T17:40:08.975Z,100406.98
2019-03-29T17:42:38.440Z,100413.41
2019-03-29T17:45:08.382Z,100412.00
2019-03-29T17:47:37.821Z,100409.67
2019-03-29T17:50:07.929Z,100419.06
2019-03-29T17:52:37.379Z,100421.38
2019-03-29T17:55:07.658Z,100424.23
2019-03-29T17:57:37.131Z,100425.55
2019-03-29T18:00:08.209Z,100422.63
2019-03-29T18:02:37.723Z,100429.33
2019-03-29T18:05:08.041Z,100429.44
2019-03-29T18:07:37.480Z,100426.44
2019-03-29T18:10:08.422Z,100429.21
2019-03-29T18:12:37.871Z,100434.17
2019-03-29T18:15:12.153Z,100429.89
2019-03-29T18:17:41.659Z,100436.13
2019-03-29T18:20:11.665Z,100433.94
2019-03-29T18:22:41.113Z,100442.33
2019-03-29T18:25:10.552Z,100441.02
2019-03-29T18:27:40.151Z,100441.17
2019-03-29T18:30:11.385Z,100443.61
2019-03-29T18:32:41.102Z,100443.00
2019-03-29T18:35:11.194Z,100438.97
2019-03-29T18:37:41.056Z,100440.39
2019-03-29T18:40:16.174Z,100436.65
2019-03-29T18:42:45.705Z,100439.12
2019-03-29T18:45:15.175Z,100441.29
2019-03-29T18:47:44.686Z,100444.50
2019-03-29T18:50:14.144Z,100441.82
2019-03-29T18:52:43.594Z,100446.70
2019-03-29T18:55:12.979Z,100438.89
2019-03-29T18:57:42.483Z,100440.80
2019-03-29T19:00:12.082Z,100446.42
2019-03-29T19:02:41.529Z,100438.30
2019-03-29T19:05:13.857Z,100443.87
2019-03-29T19:07:43.334Z,100444.53
2019-03-29T19:10:12.776Z,100449.20
2019-03-29T19:12:44.099Z,100462.16
2019-03-29T19:15:13.589Z,100461.38
2019-03-29T19:17:43.178Z,100456.89
2019-03-29T19:20:26.276Z,100455.98
2019-03-29T19:22:43.943Z,100442.88
2019-03-29T19:25:13.385Z,100446.92
2019-03-29T19:27:42.822Z,100448.23
2019-03-29T19:30:12.136Z,100465.78
2019-03-29T19:32:41.611Z,100463.77
2019-03-29T19:35:11.157Z,100461.28
2019-03-29T19:37:40.673Z,100468.77
2019-03-29T19:40:10.351Z,100471.47
2019-03-29T19:42:40.029Z,100468.98
2019-03-29T19:45:13.134Z,100469.77
2019-03-29T19:47:42.622Z,100475.42
2019-03-29T19:50:11.980Z,100471.34
2019-03-29T19:52:41.492Z,100476.69
2019-03-29T19:55:10.372Z,100478.31
2019-03-29T19:57:39.265Z,100483.50
2019-03-29T20:00:15.076Z,100479.85
2019-03-29T20:02:44.652Z,100480.86
2019-03-29T20:05:25.852Z,100478.77
2019-03-29T20:07:56.122Z,100479.22
2019-03-29T20:10:25.058Z,100482.75
2019-03-29T20:12:54.693Z,100488.70
2019-03-29T20:15:23.607Z,100487.22
2019-03-29T20:17:52.773Z,100483.20
2019-03-29T20:20:25.637Z,100482.77
2019-03-29T20:22:56.506Z,100489.81
2019-03-29T20:25:26.123Z,100490.73
2019-03-29T20:27:58.090Z,100493.23
2019-03-29T20:30:25.999Z,100492.19
2019-03-29T20:32:54.816Z,100490.91
2019-03-29T20:35:23.762Z,100500.49
2019-03-29T20:37:52.532Z,100495.73
2019-03-29T20:40:21.675Z,100500.02
2019-03-29T20:42:50.550Z,100502.53
2019-03-29T20:45:19.482Z,100509.05
2019-03-29T20:47:51.647Z,100512.52
2019-03-29T20:50:19.083Z,100516.14
2019-03-29T20:52:47.926Z,100521.38
2019-03-29T20:55:16.779Z,100521.14
2019-03-29T20:57:45.848Z,100523.45
2019-03-29T21:00:17.281Z,100524.17
2019-03-29T21:02:46.308Z,100528.16
2019-03-29T21:05:15.258Z,100529.96
2019-03-29T21:07:44.132Z,100529.47
2019-03-29T21:10:12.993Z,100535.61
2019-03-29T21:12:41.904Z,100538.37
2019-03-29T21:15:11.346Z,100536.72
2019-03-29T21:17:40.338Z,100540.38
2019-03-29T21:20:10.341Z,100540.98
2019-03-29T21:22:39.190Z,100547.66
2019-03-29T21:25:08.519Z,100550.36
2019-03-29T21:27:37.770Z,100554.52
2019-03-29T21:30:09.571Z,100552.45
2019-03-29T21:32:38.440Z,100548.30
2019-03-29T21:35:08.205Z,100548.52
2019-03-29T21:37:37.761Z,100556.34
2019-03-29T21:40:08.594Z,100557.31
2019-03-29T21:42:37.731Z,100553.28
2019-03-29T21:45:08.399Z,100557.47
2019-03-29T21:47:37.262Z,100559.48
2019-03-29T21:50:10.435Z,100559.61
2019-03-29T21:52:39.375Z,100565.31
2019-03-29T21:55:08.579Z,100562.91
2019-03-29T21:57:37.416Z,100560.43
2019-03-29T22:00:08.894Z,100561.41
2019-03-29T22:02:37.742Z,100559.71
2019-03-29T22:05:10.335Z,100554.05
2019-03-29T22:07:38.361Z,100555.46
2019-03-29T22:10:08.684Z,100554.18
2019-03-29T22:12:37.685Z,100561.08
2019-03-29T22:15:10.148Z,100557.27
2019-03-29T22:17:39.223Z,100550.39
2019-03-29T22:20:09.606Z,100556.10
2019-03-29T22:22:38.670Z,100547.91
2019-03-29T22:25:08.512Z,100544.95
2019-03-29T22:27:37.477Z,100548.02
2019-03-29T22:30:11.198Z,100547.55
2019-03-29T22:32:40.037Z,100540.17
2019-03-29T22:35:09.195Z,100544.17
2019-03-29T22:37:38.144Z,100540.66
2019-03-29T22:40:10.530Z,100539.32
2019-03-29T22:42:39.383Z,100537.63
2019-03-29T22:45:09.204Z,100532.14
2019-03-29T22:47:38.066Z,100529.55
2019-03-29T22:50:07.502Z,100529.60
2019-03-29T22:52:36.441Z,100531.28
2019-03-29T22:55:08.505Z,100527.91
2019-03-29T22:57:37.361Z,100532.31
2019-03-29T23:00:28.598Z,100534.90
2019-03-29T23:02:57.433Z,100538.05
2019-03-29T23:05:26.357Z,100537.55
2019-03-29T23:07:55.199Z,100542.70
2019-03-29T23:10:24.146Z,100544.40
2019-03-29T23:12:52.984Z,100539.34
2019-03-29T23:15:21.861Z,100541.66
2019-03-29T23:17:50.737Z,100541.75
2019-03-29T23:20:19.699Z,100542.30
2019-03-29T23:22:48.549Z,100539.44
2019-03-29T23:25:17.391Z,100546.88
2019-03-29T23:27:46.290Z,100545.75
2019-03-29T23:30:15.871Z,100540.24
2019-03-29T23:32:44.712Z,100548.19
2019-03-29T23:35:13.676Z,100543.97
2019-03-29T23:37:42.452Z,100542.23
2019-03-29T23:40:11.380Z,100537.89
2019-03-29T23:42:40.142Z,100533.19
2019-03-29T23:45:09.013Z,100526.00
2019-03-29T23:47:37.850Z,100526.66
2019-03-29T23:50:07.824Z,100528.08
2019-03-29T23:52:36.632Z,100532.44
2019-03-29T23:55:06.272Z,100528.11
2019-03-29T23:57:35.113Z,100518.98
